Time;durP1;ratioP1;P1;durP2;ratioP2;P2;SDS_P1;SDS_P2;PMS_P1;PMS_P2;Temp;Humidity;BMP_temperature;BMP_pressure;BME280_temperature;BME280_humidity;BME280_pressure;Samples;Min_cycle;Max_cycle;Signal;HPM_P1;HPM_P2
2023/09/19 00:00:20;;;;;;;16.52;13.95;;;17.50;99.90;;;;;;5031590;28;20036;-76
2023/09/19 00:02:59;;;;;;;17.05;14.05;;;17.50;99.90;;;;;;5029499;28;20026;-76
2023/09/19 00:05:27;;;;;;;17.13;13.90;;;17.50;99.90;;;;;;5015659;28;20045;-72
2023/09/19 00:07:54;;;;;;;18.40;13.90;;;17.50;99.90;;;;;;5029111;28;20939;-71
2023/09/19 00:10:24;;;;;;;17.15;14.68;;;17.40;99.90;;;;;;5022903;28;20120;-71
2023/09/19 00:12:52;;;;;;;16.20;13.50;;;17.40;99.90;;;;;;5032135;28;20535;-71
2023/09/19 00:15:18;;;;;;;18.40;14.27;;;17.30;99.90;;;;;;5030102;28;20022;-71
2023/09/19 00:17:44;;;;;;;17.50;13.93;;;17.30;99.90;;;;;;5032898;28;20042;-76
2023/09/19 00:20:12;;;;;;;19.55;15.07;;;17.30;99.90;;;;;;5020966;28;20025;-76
2023/09/19 00:22:44;;;;;;;15.65;12.48;;;17.20;99.90;;;;;;5029232;28;20044;-76
2023/09/19 00:25:11;;;;;;;16.27;13.93;;;17.20;99.90;;;;;;5029953;28;20054;-72
2023/09/19 00:27:43;;;;;;;17.52;14.38;;;17.20;99.90;;;;;;5032441;28;20057;-76
2023/09/19 00:30:21;;;;;;;16.95;13.75;;;17.20;99.90;;;;;;5027553;28;20026;-76
2023/09/19 00:32:48;;;;;;;15.77;13.50;;;17.20;99.90;;;;;;5035064;28;20063;-76
2023/09/19 00:35:15;;;;;;;17.20;13.98;;;17.20;99.90;;;;;;5026350;28;20028;-76
2023/09/19 00:37:42;;;;;;;18.52;15.38;;;17.20;99.90;;;;;;5042418;28;20041;-71
2023/09/19 00:40:15;;;;;;;21.42;14.23;;;17.20;99.90;;;;;;5021812;28;20068;-76
2023/09/19 00:42:42;;;;;;;19.20;14.05;;;17.20;99.90;;;;;;5031120;28;20479;-72
2023/09/19 00:45:11;;;;;;;18.73;14.48;;;17.20;99.90;;;;;;5032314;28;20022;-72
2023/09/19 00:47:43;;;;;;;18.40;13.18;;;17.20;99.90;;;;;;5032135;28;20504;-76
2023/09/19 00:50:10;;;;;;;19.02;14.95;;;17.20;99.90;;;;;;5032534;28;20018;-76
2023/09/19 00:52:38;;;;;;;17.92;15.32;;;17.30;99.90;;;;;;5031832;28;20439;-72
2023/09/19 00:55:06;;;;;;;18.52;14.63;;;17.30;99.90;;;;;;5031921;28;20022;-76
2023/09/19 00:57:33;;;;;;;17.50;15.40;;;17.30;99.90;;;;;;5032113;28;20025;-76
2023/09/19 01:00:04;;;;;;;15.70;13.65;;;17.30;99.90;;;;;;5031303;28;20018;-76
2023/09/19 01:02:31;;;;;;;17.73;13.52;;;17.30;99.90;;;;;;5029638;28;20070;-76
2023/09/19 01:04:58;;;;;;;16.52;13.45;;;17.30;99.90;;;;;;5018616;28;20087;-71
2023/09/19 01:07:23;;;;;;;19.95;14.57;;;17.30;99.90;;;;;;5031836;28;20026;-72
2023/09/19 01:09:50;;;;;;;18.92;15.25;;;17.30;99.90;;;;;;5031496;28;20017;-72
2023/09/19 01:12:24;;;;;;;18.27;14.75;;;17.30;99.90;;;;;;5026347;28;20014;-76
2023/09/19 01:14:58;;;;;;;18.63;15.60;;;17.30;99.90;;;;;;5025815;28;20116;-76
2023/09/19 01:17:26;;;;;;;19.73;15.40;;;17.30;99.90;;;;;;5030516;28;20109;-72
2023/09/19 01:20:42;;;;;;;19.98;15.50;;;17.30;99.90;;;;;;5044598;28;20101;-76
2023/09/19 01:23:10;;;;;;;19.33;15.25;;;17.20;99.90;;;;;;5023798;28;20037;-76
2023/09/19 01:26:08;;;;;;;18.98;14.05;;;17.20;99.90;;;;;;5031793;28;20044;-71
2023/09/19 01:28:57;;;;;;;18.83;14.90;;;17.30;99.90;;;;;;5031566;28;20426;-76
2023/09/19 01:31:24;;;;;;;19.38;15.10;;;17.30;99.90;;;;;;5044539;28;20033;-72
2023/09/19 01:34:03;;;;;;;16.80;14.60;;;17.30;99.90;;;;;;5040421;28;20043;-71
2023/09/19 01:36:35;;;;;;;20.17;15.13;;;17.30;99.90;;;;;;5050696;28;20025;-72
2023/09/19 01:39:08;;;;;;;18.20;14.55;;;17.40;99.90;;;;;;5049502;28;20120;-76
2023/09/19 01:41:41;;;;;;;18.08;13.98;;;17.40;99.90;;;;;;5019048;28;20036;-72
2023/09/19 01:44:13;;;;;;;17.85;13.77;;;17.40;99.90;;;;;;5044392;28;20025;-76
2023/09/19 01:46:41;;;;;;;22.85;14.70;;;17.50;99.90;;;;;;5040580;28;20053;-72
2023/09/19 01:49:32;;;;;;;19.10;14.85;;;17.50;99.90;;;;;;5045168;28;20033;-72
2023/09/19 01:52:16;;;;;;;16.15;14.05;;;17.50;99.90;;;;;;5044798;28;20036;-76
2023/09/19 01:55:05;;;;;;;22.85;14.73;;;17.50;99.90;;;;;;5028189;28;20029;-77
2023/09/19 01:57:38;;;;;;;17.73;13.90;;;17.50;99.90;;;;;;5048421;28;20100;-72
2023/09/19 02:00:09;;;;;;;17.98;14.80;;;17.50;99.90;;;;;;5037967;28;20025;-76
2023/09/19 02:02:39;;;;;;;17.40;15.32;;;17.60;99.90;;;;;;5047800;28;20029;-77
2023/09/19 02:05:06;;;;;;;17.38;14.25;;;17.60;99.90;;;;;;5047947;28;20497;-76
2023/09/19 02:07:32;;;;;;;18.05;14.02;;;17.60;99.90;;;;;;5037194;28;20443;-71
2023/09/19 02:10:05;;;;;;;16.10;13.30;;;17.70;99.90;;;;;;5047422;28;20025;-72
2023/09/19 02:12:30;;;;;;;;;;;17.70;99.90;;;;;;5013436;28;20026;-76
2023/09/19 02:14:57;;;;;;;17.27;13.77;;;17.70;99.90;;;;;;5038776;28;19905;-76
2023/09/19 02:17:25;;;;;;;18.00;12.85;;;17.80;99.90;;;;;;5031034;28;20097;-71
2023/09/19 02:19:53;;;;;;;17.67;12.63;;;17.80;99.90;;;;;;5029263;28;20024;-72
2023/09/19 02:22:19;;;;;;;16.58;12.82;;;17.90;99.90;;;;;;5031715;28;20061;-75
2023/09/19 02:24:45;;;;;;;15.85;12.35;;;18.00;99.90;;;;;;5030576;28;20082;-75
2023/09/19 02:27:14;;;;;;;19.15;13.30;;;18.00;99.90;;;;;;5029441;28;20022;-75
2023/09/19 02:29:40;;;;;;;18.52;13.65;;;18.00;99.90;;;;;;5032102;28;20026;-72
2023/09/19 02:32:06;;;;;;;16.58;13.35;;;18.10;99.90;;;;;;5030261;28;20475;-75
2023/09/19 02:34:32;;;;;;;16.17;13.20;;;18.10;99.90;;;;;;5031198;28;20090;-71
2023/09/19 02:36:58;;;;;;;17.83;14.02;;;18.10;99.90;;;;;;5030522;28;20074;-76
2023/09/19 02:39:23;;;;;;;19.10;13.05;;;18.10;99.90;;;;;;5029355;28;20022;-71
2023/09/19 02:41:49;;;;;;;18.15;12.75;;;18.20;99.90;;;;;;5030482;28;20052;-75
2023/09/19 02:44:15;;;;;;;15.55;13.30;;;18.10;99.90;;;;;;5032652;28;20025;-76
2023/09/19 02:46:42;;;;;;;20.85;14.27;;;18.20;99.90;;;;;;5030337;28;20021;-76
2023/09/19 02:49:07;;;;;;;20.20;14.27;;;18.10;99.90;;;;;;5030140;28;20045;-72
2023/09/19 02:51:34;;;;;;;16.58;14.10;;;18.20;99.90;;;;;;5029576;28;20368;-75
2023/09/19 02:54:00;;;;;;;26.38;17.10;;;18.10;99.90;;;;;;5025800;28;20021;-72
2023/09/19 02:56:26;;;;;;;17.48;15.02;;;18.10;99.90;;;;;;5031555;28;20022;-76
2023/09/19 02:58:53;;;;;;;21.75;16.77;;;18.10;99.90;;;;;;5029997;28;20551;-75
2023/09/19 03:01:19;;;;;;;19.10;16.27;;;18.10;99.90;;;;;;5030344;28;20055;-75
2023/09/19 03:03:45;;;;;;;25.05;18.42;;;18.20;99.90;;;;;;5030881;28;20040;-76
2023/09/19 03:06:12;;;;;;;19.23;16.30;;;18.20;99.90;;;;;;5030318;28;20018;-71
2023/09/19 03:08:39;;;;;;;23.77;17.25;;;18.10;99.90;;;;;;5029853;28;20028;-76
2023/09/19 03:11:06;;;;;;;18.58;15.80;;;18.10;99.90;;;;;;5030062;28;20040;-76
2023/09/19 03:13:32;;;;;;;20.33;16.38;;;18.20;99.90;;;;;;5020909;28;20013;-71
2023/09/19 03:15:58;;;;;;;21.30;16.30;;;18.20;99.90;;;;;;5049517;28;20017;-71
2023/09/19 03:18:26;;;;;;;18.95;14.75;;;18.20;99.90;;;;;;5048965;28;20025;-72
2023/09/19 03:20:56;;;;;;;18.05;14.98;;;18.10;99.90;;;;;;5039064;28;20013;-71
2023/09/19 03:23:22;;;;;;;18.65;15.80;;;18.10;99.90;;;;;;5039224;28;20024;-72
2023/09/19 03:25:48;;;;;;;18.92;15.20;;;18.10;99.90;;;;;;5038883;28;20501;-76
2023/09/19 03:28:15;;;;;;;20.92;15.35;;;18.10;99.90;;;;;;5043874;28;20029;-71
2023/09/19 03:30:41;;;;;;;19.33;15.38;;;18.10;99.90;;;;;;5038273;28;20191;-72
2023/09/19 03:33:08;;;;;;;18.75;15.18;;;18.20;99.90;;;;;;5046043;28;20494;-71
2023/09/19 03:35:34;;;;;;;21.38;16.25;;;18.10;99.90;;;;;;5033446;28;20380;-72
2023/09/19 03:38:00;;;;;;;21.48;16.65;;;18.10;99.90;;;;;;5033023;28;20037;-72
2023/09/19 03:40:26;;;;;;;21.73;16.02;;;18.20;99.90;;;;;;5048088;28;20025;-72
2023/09/19 03:42:51;;;;;;;18.60;14.95;;;18.20;99.90;;;;;;5044197;28;20021;-76
2023/09/19 03:45:18;;;;;;;20.55;16.30;;;18.10;99.90;;;;;;5040130;28;20024;-76
2023/09/19 03:47:44;;;;;;;20.50;15.85;;;18.20;99.90;;;;;;5045851;28;20496;-71
2023/09/19 03:50:12;;;;;;;18.58;16.05;;;18.20;99.90;;;;;;5045097;28;20067;-76
2023/09/19 03:52:38;;;;;;;20.40;15.25;;;18.20;99.90;;;;;;5034996;28;20062;-75
2023/09/19 03:55:06;;;;;;;24.38;17.60;;;18.20;99.90;;;;;;5029349;28;20029;-71
2023/09/19 03:57:32;;;;;;;21.13;16.83;;;18.20;99.90;;;;;;5039719;28;20053;-75
2023/09/19 03:59:58;;;;;;;20.08;16.25;;;18.20;99.90;;;;;;5029158;28;20121;-72
2023/09/19 04:02:24;;;;;;;23.55;17.52;;;18.20;99.90;;;;;;5030336;28;20022;-75
2023/09/19 04:04:50;;;;;;;20.73;17.23;;;18.20;99.90;;;;;;5028017;28;20111;-72
2023/09/19 04:07:16;;;;;;;18.80;16.38;;;18.10;99.90;;;;;;5030538;28;20040;-72
2023/09/19 04:09:42;;;;;;;21.00;17.23;;;18.10;99.90;;;;;;5029307;28;20486;-71
2023/09/19 04:12:11;;;;;;;18.98;16.10;;;18.00;99.90;;;;;;5026160;28;20036;-75
2023/09/19 04:14:37;;;;;;;20.95;16.90;;;18.00;99.90;;;;;;5024511;28;20053;-72
2023/09/19 04:17:03;;;;;;;22.88;16.80;;;17.90;99.90;;;;;;5029002;28;20550;-75
2023/09/19 04:19:29;;;;;;;25.30;18.80;;;17.90;99.90;;;;;;5029065;28;20395;-71
2023/09/19 04:21:54;;;;;;;24.83;19.17;;;17.80;99.90;;;;;;5031556;28;20022;-71
2023/09/19 04:24:20;;;;;;;27.00;21.23;;;17.80;99.90;;;;;;5027252;28;20578;-75
2023/09/19 04:26:46;;;;;;;28.13;22.88;;;17.80;99.90;;;;;;5035457;28;20024;-74
2023/09/19 04:29:14;;;;;;;42.53;28.42;;;17.70;99.90;;;;;;5025676;28;20030;-75
2023/09/19 04:31:40;;;;;;;94.28;69.13;;;17.70;99.90;;;;;;5030037;28;20021;-75
2023/09/19 04:34:06;;;;;;;49.17;38.05;;;17.70;99.90;;;;;;5036797;28;20036;-71
2023/09/19 04:36:32;;;;;;;38.25;28.05;;;17.60;99.90;;;;;;5027816;28;20063;-71
2023/09/19 04:38:57;;;;;;;31.48;24.48;;;17.50;99.90;;;;;;5041004;28;20061;-75
2023/09/19 04:41:24;;;;;;;37.30;26.17;;;17.50;99.90;;;;;;5046174;28;20069;-73
2023/09/19 04:43:50;;;;;;;37.13;28.75;;;17.40;99.90;;;;;;5047864;28;20020;-73
2023/09/19 04:46:17;;;;;;;39.15;26.83;;;17.30;99.90;;;;;;5032384;28;20375;-73
2023/09/19 04:48:43;;;;;;;39.17;28.02;;;17.30;99.90;;;;;;5035583;28;20037;-70
2023/09/19 04:51:10;;;;;;;33.60;26.05;;;17.30;99.90;;;;;;5038161;28;20022;-75
2023/09/19 04:53:36;;;;;;;37.42;25.08;;;17.30;99.90;;;;;;5032167;28;20017;-75
2023/09/19 04:56:03;;;;;;;36.50;27.45;;;17.30;99.90;;;;;;5031209;28;20440;-74
2023/09/19 04:58:29;;;;;;;38.70;27.58;;;17.30;99.90;;;;;;5032004;28;20455;-71
2023/09/19 05:00:54;;;;;;;33.40;26.10;;;17.30;99.90;;;;;;5036500;28;20029;-71
2023/09/19 05:03:20;;;;;;;39.33;27.85;;;17.30;99.90;;;;;;5036311;28;20032;-71
2023/09/19 05:05:46;;;;;;;39.15;28.08;;;17.30;99.90;;;;;;5040460;28;20021;-70
2023/09/19 05:08:14;;;;;;;38.40;27.52;;;17.30;99.90;;;;;;5037756;28;20037;-70
2023/09/19 05:10:40;;;;;;;40.58;27.75;;;17.30;99.90;;;;;;5028305;28;20022;-70
2023/09/19 05:13:07;;;;;;;37.90;26.48;;;17.30;99.90;;;;;;5020414;28;20108;-75
2023/09/19 05:15:33;;;;;;;41.88;29.92;;;17.30;99.90;;;;;;5031677;28;20022;-75
2023/09/19 05:17:58;;;;;;;41.28;28.55;;;17.30;99.90;;;;;;5032066;28;20120;-75
2023/09/19 05:20:25;;;;;;;43.78;27.48;;;17.30;99.90;;;;;;5025850;28;20101;-77
2023/09/19 05:23:01;;;;;;;39.72;27.67;;;17.30;99.90;;;;;;5028840;28;20037;-75
2023/09/19 05:25:29;;;;;;;37.67;28.73;;;17.30;99.90;;;;;;5020057;28;20036;-71
2023/09/19 05:27:58;;;;;;;41.85;28.77;;;17.20;99.90;;;;;;5028814;28;20033;-76
2023/09/19 05:30:27;;;;;;;36.55;27.40;;;17.30;99.90;;;;;;5031284;28;20109;-76
2023/09/19 05:32:54;;;;;;;38.13;28.85;;;17.20;99.90;;;;;;5030399;28;20448;-71
2023/09/19 05:35:21;;;;;;;37.47;27.83;;;17.30;99.90;;;;;;5026368;28;20018;-71
2023/09/19 05:37:50;;;;;;;35.38;28.80;;;17.30;99.90;;;;;;5025018;28;20532;-72
2023/09/19 05:40:17;;;;;;;39.42;28.63;;;17.30;99.90;;;;;;5020140;28;20014;-72
2023/09/19 05:42:43;;;;;;;37.70;28.67;;;17.30;99.90;;;;;;5021644;28;20117;-71
2023/09/19 05:45:13;;;;;;;41.92;29.48;;;17.20;99.90;;;;;;5017811;28;20021;-73
2023/09/19 05:47:46;;;;;;;38.92;27.80;;;17.20;99.90;;;;;;5030349;28;20045;-71
2023/09/19 05:50:12;;;;;;;42.17;29.98;;;17.10;99.90;;;;;;5038737;28;20064;-76
2023/09/19 05:52:38;;;;;;;42.58;29.13;;;17.20;99.90;;;;;;5021197;28;20528;-76
2023/09/19 05:55:08;;;;;;;41.03;28.80;;;17.10;99.90;;;;;;5029542;28;20378;-76
2023/09/19 05:57:38;;;;;;;37.05;27.35;;;17.10;99.90;;;;;;5027397;28;20050;-72
2023/09/19 06:00:09;;;;;;;42.35;29.67;;;17.10;99.90;;;;;;5027038;28;20098;-72
2023/09/19 06:02:36;;;;;;;40.40;29.60;;;17.10;99.90;;;;;;5021320;28;20106;-76
2023/09/19 06:05:02;;;;;;;45.63;30.63;;;17.00;99.90;;;;;;5029424;28;20029;-76
2023/09/19 06:07:36;;;;;;;49.92;32.65;;;17.10;99.90;;;;;;5030358;28;20116;-76
2023/09/19 06:10:08;;;;;;;53.92;32.15;;;17.00;99.90;;;;;;5032156;28;20481;-76
2023/09/19 06:12:37;;;;;;;46.70;32.35;;;17.00;99.90;;;;;;5022810;28;20030;-76
2023/09/19 06:15:05;;;;;;;49.13;32.75;;;17.00;99.90;;;;;;5026347;28;20018;-76
2023/09/19 06:17:31;;;;;;;60.45;34.95;;;17.00;99.90;;;;;;5039642;28;20052;-76
2023/09/19 06:19:57;;;;;;;58.70;35.92;;;16.90;99.90;;;;;;5036542;28;20053;-76
2023/09/19 06:22:24;;;;;;;54.22;33.67;;;16.90;99.90;;;;;;5052616;28;20022;-76
2023/09/19 06:24:50;;;;;;;54.15;34.35;;;16.90;99.90;;;;;;5026512;28;20093;-76
2023/09/19 06:27:16;;;;;;;55.10;35.33;;;16.90;99.90;;;;;;5038606;28;20021;-72
2023/09/19 06:29:41;;;;;;;48.33;34.33;;;16.80;99.90;;;;;;5031662;28;20063;-76
2023/09/19 06:32:10;;;;;;;55.63;34.10;;;16.80;99.90;;;;;;5030004;28;20028;-76
2023/09/19 06:34:38;;;;;;;54.63;36.40;;;16.80;99.90;;;;;;5034246;28;20029;-76
2023/09/19 06:37:05;;;;;;;49.08;33.80;;;16.80;99.90;;;;;;5036547;28;20125;-76
2023/09/19 06:39:31;;;;;;;45.95;34.70;;;16.80;99.90;;;;;;5039009;28;20089;-76
2023/09/19 06:41:57;;;;;;;49.63;35.15;;;16.80;99.90;;;;;;5032990;28;20029;-76
2023/09/19 06:44:24;;;;;;;52.70;36.30;;;16.80;99.90;;;;;;5030538;28;20064;-76
2023/09/19 06:46:51;;;;;;;51.20;35.80;;;16.70;99.90;;;;;;5028791;28;20127;-76
2023/09/19 06:49:17;;;;;;;55.42;37.55;;;16.70;99.90;;;;;;5031325;28;20066;-76
2023/09/19 06:51:43;;;;;;;55.50;38.15;;;16.70;99.90;;;;;;5032669;28;20470;-77
2023/09/19 06:54:09;;;;;;;54.42;36.60;;;16.60;99.90;;;;;;5040893;28;20028;-77
2023/09/19 06:56:35;;;;;;;59.88;40.25;;;16.60;99.90;;;;;;5030176;28;20033;-77
2023/09/19 06:59:02;;;;;;;56.58;40.05;;;16.60;99.90;;;;;;5029250;28;20029;-76
2023/09/19 07:01:28;;;;;;;56.97;39.45;;;16.60;99.90;;;;;;5029763;28;20044;-76
2023/09/19 07:03:54;;;;;;;59.33;39.58;;;16.50;99.90;;;;;;5039181;28;20489;-72
2023/09/19 07:06:20;;;;;;;57.22;39.00;;;16.50;99.90;;;;;;5033423;28;20014;-76
2023/09/19 07:08:46;;;;;;;54.10;37.38;;;16.50;99.90;;;;;;5040533;28;20546;-72
2023/09/19 07:11:12;;;;;;;51.13;37.67;;;16.40;99.90;;;;;;5041836;28;20045;-72
2023/09/19 07:13:39;;;;;;;58.45;37.63;;;16.40;99.90;;;;;;5017560;28;20471;-72
2023/09/19 07:16:04;;;;;;;52.17;37.85;;;16.40;99.90;;;;;;5030091;28;20045;-76
2023/09/19 07:18:31;;;;;;;50.92;34.60;;;16.40;99.90;;;;;;5029713;28;20057;-76
2023/09/19 07:21:01;;;;;;;50.35;34.88;;;16.40;99.90;;;;;;5030018;28;20035;-76
2023/09/19 07:23:26;;;;;;;48.08;33.85;;;16.40;99.90;;;;;;5029531;28;20021;-76
2023/09/19 07:25:52;;;;;;;44.05;32.70;;;16.30;99.90;;;;;;5029891;28;20020;-75
2023/09/19 07:28:18;;;;;;;45.92;34.90;;;16.40;99.90;;;;;;5038845;28;20372;-76
2023/09/19 07:30:44;;;;;;;46.92;33.92;;;16.40;99.90;;;;;;5030005;28;20022;-72
2023/09/19 07:33:12;;;;;;;46.67;33.40;;;16.50;99.90;;;;;;5035357;28;20064;-72
2023/09/19 07:35:41;;;;;;;47.70;34.65;;;16.60;99.90;;;;;;5029015;28;20025;-73
2023/09/19 07:38:08;;;;;;;44.17;31.67;;;16.60;99.90;;;;;;5034034;28;20131;-76
2023/09/19 07:40:36;;;;;;;44.38;34.00;;;16.60;99.90;;;;;;5031203;28;20046;-72
2023/09/19 07:43:02;;;;;;;42.42;30.80;;;16.60;99.90;;;;;;5028395;28;20160;-72
2023/09/19 07:45:29;;;;;;;46.17;31.92;;;16.70;99.90;;;;;;5032471;28;20021;-76
2023/09/19 07:47:55;;;;;;;42.08;30.00;;;16.70;99.90;;;;;;5031801;28;20046;-72
2023/09/19 07:50:21;;;;;;;42.88;30.08;;;16.70;99.90;;;;;;5029680;28;20512;-72
2023/09/19 07:52:50;;;;;;;46.17;31.92;;;16.70;99.90;;;;;;5028121;28;20025;-76
2023/09/19 07:55:17;;;;;;;41.58;30.98;;;16.70;99.90;;;;;;5027676;28;20018;-76
2023/09/19 07:57:46;;;;;;;39.28;30.48;;;16.70;99.90;;;;;;5027365;28;20071;-72
2023/09/19 08:00:12;;;;;;;42.17;31.38;;;16.70;99.90;;;;;;5031955;28;20021;-76
2023/09/19 08:02:40;;;;;;;41.30;30.02;;;16.70;99.90;;;;;;5035309;28;20053;-72
2023/09/19 08:05:06;;;;;;;40.95;31.20;;;16.60;99.90;;;;;;5027498;28;20036;-72
2023/09/19 08:07:36;;;;;;;41.53;30.95;;;16.70;99.90;;;;;;5032134;28;20022;-76
2023/09/19 08:10:02;;;;;;;41.42;29.05;;;16.60;99.90;;;;;;5035390;28;20029;-76
2023/09/19 08:12:29;;;;;;;42.50;31.20;;;16.70;99.90;;;;;;5026571;28;20372;-76
2023/09/19 08:14:55;;;;;;;47.20;30.85;;;16.70;99.90;;;;;;5027592;28;20038;-76
2023/09/19 08:17:22;;;;;;;43.45;32.25;;;16.70;99.90;;;;;;5032812;28;20032;-76
2023/09/19 08:19:52;;;;;;;41.88;31.08;;;16.70;99.90;;;;;;5032379;28;20022;-72
2023/09/19 08:22:19;;;;;;;43.92;32.17;;;16.70;99.90;;;;;;5041125;28;20021;-72
2023/09/19 08:24:44;;;;;;;42.33;29.38;;;16.70;99.90;;;;;;5051381;28;20081;-76
2023/09/19 08:27:12;;;;;;;44.28;30.98;;;16.60;99.90;;;;;;5050268;28;20077;-72
2023/09/19 08:29:38;;;;;;;46.40;32.13;;;16.60;99.90;;;;;;5032551;28;20041;-72
2023/09/19 08:32:04;;;;;;;44.67;30.50;;;16.50;99.90;;;;;;5031156;28;20025;-76
2023/09/19 08:34:34;;;;;;;40.33;29.70;;;16.50;99.90;;;;;;5041839;28;20017;-72
2023/09/19 08:36:59;;;;;;;45.63;32.80;;;16.50;99.90;;;;;;5040378;28;20029;-76
2023/09/19 08:39:25;;;;;;;43.95;31.67;;;16.40;99.90;;;;;;5049696;28;20037;-76
2023/09/19 08:42:01;;;;;;;45.17;31.83;;;16.50;99.90;;;;;;5033795;28;20018;-76
2023/09/19 08:44:30;;;;;;;40.50;30.08;;;16.50;99.90;;;;;;5042138;28;20068;-72
2023/09/19 08:47:15;;;;;;;39.45;28.38;;;16.40;99.90;;;;;;5040409;28;20021;-73
2023/09/19 08:49:59;;;;;;;44.55;30.48;;;16.50;99.90;;;;;;5044882;28;20109;-76
2023/09/19 08:52:33;;;;;;;38.67;29.25;;;16.50;99.90;;;;;;5032109;28;20029;-76
2023/09/19 08:55:04;;;;;;;39.90;29.35;;;16.50;99.90;;;;;;5051620;28;20025;-76
2023/09/19 08:57:34;;;;;;;38.38;27.02;;;16.40;99.90;;;;;;5038217;28;20028;-76
2023/09/19 09:00:02;;;;;;;39.85;27.90;;;16.40;99.90;;;;;;5032280;28;20505;-77
2023/09/19 09:02:28;;;;;;;41.78;29.10;;;16.40;99.90;;;;;;5032037;28;20046;-72
2023/09/19 09:04:55;;;;;;;38.05;25.88;;;16.40;99.90;;;;;;5030837;28;20106;-76
2023/09/19 09:07:22;;;;;;;37.70;27.52;;;16.40;99.90;;;;;;5035768;28;20028;-73
2023/09/19 09:09:48;;;;;;;33.35;24.67;;;16.40;99.90;;;;;;5037734;28;20074;-76
2023/09/19 09:12:15;;;;;;;34.85;24.42;;;16.40;99.90;;;;;;5039690;28;20433;-76
2023/09/19 09:14:46;;;;;;;34.45;22.77;;;16.40;99.90;;;;;;5024700;28;20375;-76
2023/09/19 09:17:12;;;;;;;32.78;22.45;;;16.40;99.90;;;;;;5018763;28;20086;-76
2023/09/19 09:19:38;;;;;;;37.17;23.90;;;16.40;99.90;;;;;;5031895;28;20475;-76
2023/09/19 09:22:11;;;;;;;33.00;23.23;;;16.40;99.90;;;;;;5028932;28;20374;-72
2023/09/19 09:24:39;;;;;;;27.48;18.75;;;16.30;99.90;;;;;;5031750;28;20374;-73
2023/09/19 09:27:10;;;;;;;27.05;19.02;;;16.30;99.90;;;;;;5042451;28;20057;-75
2023/09/19 09:29:41;;;;;;;26.45;19.50;;;16.40;99.90;;;;;;5031566;28;20511;-76
2023/09/19 09:32:24;;;;;;;26.90;19.40;;;16.40;99.90;;;;;;5031558;28;20014;-76
2023/09/19 09:34:51;;;;;;;;;;;16.40;99.90;;;;;;5044055;28;20036;-73
2023/09/19 09:37:20;;;;;;;21.60;14.68;;;16.30;99.90;;;;;;5038503;28;19909;-73
2023/09/19 09:40:12;;;;;;;19.85;14.57;;;16.30;99.90;;;;;;5034596;28;20024;-72
2023/09/19 09:42:41;;;;;;;19.70;12.27;;;16.30;99.90;;;;;;5025674;28;20025;-76
2023/09/19 09:48:03;;;;;;;17.40;11.32;;;16.30;99.90;;;;;;5039851;28;20506;-73
2023/09/19 09:50:44;;;;;;;14.45;10.20;;;16.20;99.90;;;;;;5029940;28;20482;-73
2023/09/19 09:53:25;;;;;;;16.20;10.25;;;16.30;99.90;;;;;;5038338;28;20024;-76
2023/09/19 09:55:58;;;;;;;16.08;10.63;;;16.20;99.90;;;;;;5033962;28;20391;-74
2023/09/19 09:58:28;;;;;;;18.38;10.48;;;16.20;99.90;;;;;;5047458;28;20055;-76
2023/09/19 10:00:58;;;;;;;14.95;10.68;;;16.20;99.90;;;;;;5037017;28;20545;-72
2023/09/19 10:04:00;;;;;;;13.98;10.30;;;16.20;99.90;;;;;;5036766;28;20037;-77
2023/09/19 10:06:26;;;;;;;16.77;10.45;;;16.20;99.90;;;;;;5038935;28;20059;-77
2023/09/19 10:09:11;;;;;;;13.93;10.18;;;16.20;99.90;;;;;;5031989;28;20030;-72
2023/09/19 10:11:54;;;;;;;18.30;10.52;;;16.20;99.90;;;;;;5054378;28;20021;-72
2023/09/19 10:14:24;;;;;;;17.38;10.43;;;16.20;99.90;;;;;;5039305;28;20018;-72
2023/09/19 10:16:53;;;;;;;16.45;10.98;;;16.30;99.90;;;;;;5033702;28;20478;-72
2023/09/19 10:19:33;;;;;;;16.38;10.68;;;16.30;99.90;;;;;;5030947;28;20059;-76
2023/09/19 10:22:01;;;;;;;15.07;11.05;;;16.30;99.90;;;;;;5018930;28;20075;-76
2023/09/19 10:24:28;;;;;;;15.68;11.40;;;16.40;99.90;;;;;;5027492;28;20037;-77
2023/09/19 10:26:54;;;;;;;17.80;11.35;;;16.40;99.90;;;;;;5028614;28;20018;-77
2023/09/19 10:29:21;;;;;;;17.13;10.82;;;16.50;99.90;;;;;;5023741;28;20049;-77
2023/09/19 10:31:48;;;;;;;12.82;10.65;;;16.50;99.90;;;;;;5029373;28;20074;-77
2023/09/19 10:34:17;;;;;;;15.18;11.07;;;16.50;99.90;;;;;;5030501;28;20030;-77
2023/09/19 10:36:46;;;;;;;18.40;12.40;;;16.60;99.90;;;;;;5033129;28;20152;-77
2023/09/19 10:39:19;;;;;;;18.58;11.65;;;16.60;99.90;;;;;;5029356;28;20456;-77
2023/09/19 10:41:58;;;;;;;17.42;11.80;;;16.60;99.90;;;;;;5027760;28;20021;-77
2023/09/19 10:44:28;;;;;;;16.90;11.43;;;16.60;99.90;;;;;;5028807;28;20125;-77
2023/09/19 10:46:54;;;;;;;15.48;12.05;;;16.70;99.90;;;;;;5032165;28;20025;-77
2023/09/19 10:49:21;;;;;;;21.13;11.93;;;16.60;99.90;;;;;;5025085;28;20100;-77
2023/09/19 10:51:50;;;;;;;18.10;13.20;;;16.70;99.90;;;;;;5033106;28;20538;-77
2023/09/19 10:54:26;;;;;;;20.63;12.40;;;16.70;99.90;;;;;;5030150;28;20467;-77
2023/09/19 10:56:52;;;;;;;14.35;11.05;;;16.70;99.90;;;;;;5019723;28;20026;-77
2023/09/19 10:59:24;;;;;;;16.30;13.05;;;16.70;99.90;;;;;;5027971;28;20033;-77
2023/09/19 11:01:57;;;;;;;14.60;11.75;;;16.70;99.90;;;;;;5026587;28;20522;-77
2023/09/19 11:04:31;;;;;;;17.40;12.00;;;16.70;99.90;;;;;;5024708;28;20157;-77
2023/09/19 11:07:11;;;;;;;17.50;11.45;;;16.70;99.90;;;;;;5032691;27;20014;-78
2023/09/19 11:09:46;;;;;;;16.80;11.85;;;16.70;99.90;;;;;;5024017;28;20077;-78
2023/09/19 11:12:37;;;;;;;14.65;12.60;;;16.60;99.90;;;;;;5024475;28;20037;-77
2023/09/19 11:15:07;;;;;;;15.55;12.60;;;16.70;99.90;;;;;;5027752;28;20140;-73
2023/09/19 11:17:37;;;;;;;18.60;13.18;;;16.70;99.90;;;;;;5027191;28;20478;-73
2023/09/19 11:22:58;;;;;;;17.52;13.50;;;16.60;99.90;;;;;;5029159;28;20045;-72
2023/09/19 11:25:30;;;;;;;17.65;15.43;;;16.60;99.90;;;;;;5031973;28;20082;-72
2023/09/19 11:28:18;;;;;;;20.83;13.33;;;16.70;99.90;;;;;;5036500;28;20033;-72
2023/09/19 11:30:55;;;;;;;19.48;15.43;;;16.70;99.90;;;;;;5024568;28;20045;-72
2023/09/19 11:36:14;;;;;;;22.05;15.32;;;16.70;99.90;;;;;;5031585;28;20033;-72
2023/09/19 11:38:45;;;;;;;20.98;16.15;;;16.70;99.90;;;;;;5029576;28;20049;-72
2023/09/19 11:41:20;;;;;;;23.60;15.25;;;16.70;99.90;;;;;;5027510;28;20040;-72
2023/09/19 11:43:46;;;;;;;20.70;14.77;;;16.70;99.90;;;;;;5025432;28;20112;-72
2023/09/19 11:46:16;;;;;;;24.63;16.35;;;16.60;99.90;;;;;;5030428;28;20038;-72
2023/09/19 11:48:44;;;;;;;23.15;15.27;;;16.60;99.90;;;;;;5031915;28;20038;-71
2023/09/19 11:51:26;;;;;;;22.27;14.63;;;16.60;99.90;;;;;;5031828;28;20483;-72
2023/09/19 11:53:53;;;;;;;22.52;13.65;;;16.60;99.90;;;;;;5031584;28;20045;-72
2023/09/19 11:56:21;;;;;;;19.30;13.13;;;16.60;99.90;;;;;;5029577;28;20109;-71
2023/09/19 11:58:53;;;;;;;23.00;14.48;;;16.60;99.90;;;;;;5033262;28;20029;-72
2023/09/19 12:01:28;;;;;;;17.92;14.35;;;16.60;99.90;;;;;;5029399;28;20482;-72
2023/09/19 12:03:58;;;;;;;16.70;12.63;;;16.50;99.90;;;;;;5030588;28;20050;-72
2023/09/19 12:06:35;;;;;;;16.80;12.35;;;16.50;99.90;;;;;;5028581;28;20030;-72
2023/09/19 12:09:06;;;;;;;17.42;11.57;;;16.50;99.90;;;;;;5031271;28;20044;-72
2023/09/19 12:11:35;;;;;;;15.45;12.65;;;16.50;99.90;;;;;;5036178;28;20036;-72
2023/09/19 12:14:02;;;;;;;13.00;10.15;;;16.50;99.90;;;;;;5031510;28;20029;-72
2023/09/19 12:16:31;;;;;;;10.30;9.20;;;16.50;99.90;;;;;;5029386;28;20083;-72
2023/09/19 12:18:58;;;;;;;10.60;8.77;;;16.50;99.90;;;;;;5029800;28;20359;-72
2023/09/19 12:21:35;;;;;;;12.27;8.00;;;16.50;99.90;;;;;;5030090;28;20029;-72
2023/09/19 12:24:04;;;;;;;8.73;6.88;;;16.50;99.90;;;;;;5028854;28;20498;-72
2023/09/19 12:26:39;;;;;;;7.75;6.82;;;16.50;99.90;;;;;;5030490;28;20044;-72
2023/09/19 12:29:05;;;;;;;8.80;6.90;;;16.50;99.90;;;;;;5027543;28;20509;-72
2023/09/19 12:31:36;;;;;;;7.90;6.05;;;16.60;99.90;;;;;;5030126;28;20128;-72
2023/09/19 12:34:02;;;;;;;7.00;6.15;;;16.50;99.90;;;;;;5029515;28;20083;-72
2023/09/19 12:36:31;;;;;;;11.10;6.63;;;16.50;99.90;;;;;;5031366;28;20042;-72
2023/09/19 12:38:58;;;;;;;6.85;6.15;;;16.60;99.90;;;;;;5031998;28;20050;-72
2023/09/19 12:41:25;;;;;;;9.07;8.13;;;16.60;99.90;;;;;;5030853;28;20040;-72
2023/09/19 12:43:53;;;;;;;9.50;7.43;;;16.70;99.90;;;;;;5029163;28;20025;-72
2023/09/19 12:46:25;;;;;;;12.02;7.82;;;16.60;99.90;;;;;;5035304;28;20040;-72